createdAt,value
2023-03-29T00:01:36.183Z,101404.50
2023-03-29T00:04:21.753Z,101390.66
2023-03-29T00:07:14.266Z,101379.50
2023-03-29T00:09:47.171Z,101392.34
2023-03-29T00:12:38.255Z,101384.44
2023-03-29T00:15:16.799Z,101370.31
2023-03-29T00:17:50.318Z,101383.34
2023-03-29T00:20:25.494Z,101359.94
2023-03-29T00:23:05.888Z,101381.06
2023-03-29T00:25:38.591Z,101366.94
2023-03-29T00:28:11.235Z,101378.72
2023-03-29T00:30:43.883Z,101366.59
2023-03-29T00:36:29.488Z,101360.72
2023-03-29T00:39:04.723Z,101347.66
2023-03-29T00:41:53.279Z,101352.78
2023-03-29T00:45:10.253Z,101372.22
2023-03-29T00:47:51.205Z,101340.19
2023-03-29T00:50:32.525Z,101338.97
2023-03-29T00:53:31.098Z,101365.06
2023-03-29T00:56:13.936Z,101356.69
2023-03-29T00:59:15.656Z,101345.47
2023-03-29T01:02:05.467Z,101350.47
2023-03-29T01:08:09.231Z,101358.44
2023-03-29T01:13:43.997Z,101342.06
2023-03-29T01:19:12.997Z,101342.34
2023-03-29T01:22:53.098Z,101334.28
2023-03-29T01:26:03.321Z,101349.84
2023-03-29T01:29:07.264Z,101339.56
2023-03-29T01:32:36.664Z,101337.41
2023-03-29T01:35:44.756Z,101331.53
2023-03-29T01:38:54.810Z,101302.66
2023-03-29T01:42:17.043Z,101304.34
2023-03-29T01:45:11.176Z,101298.75
2023-03-29T01:47:56.741Z,101308.84
2023-03-29T01:51:04.701Z,101296.41
2023-03-29T01:54:06.511Z,101305.63
2023-03-29T01:56:58.549Z,101265.25
2023-03-29T01:59:51.183Z,101290.22
2023-03-29T02:02:31.064Z,101295.97
2023-03-29T02:05:10.112Z,101268.97
2023-03-29T02:08:01.179Z,101284.34
2023-03-29T02:10:46.307Z,101258.88
2023-03-29T02:13:21.787Z,101274.88
2023-03-29T02:15:54.697Z,101255.78
2023-03-29T02:18:27.718Z,101265.72
2023-03-29T02:21:01.698Z,101253.59
2023-03-29T02:26:34.209Z,101253.34
2023-03-29T02:29:18.856Z,101228.66
2023-03-29T02:32:07.019Z,101263.13
2023-03-29T02:35:08.153Z,101238.63
2023-03-29T02:38:00.012Z,101210.66
2023-03-29T02:40:35.754Z,101236.88
2023-03-29T02:43:11.398Z,101229.44
2023-03-29T02:45:46.123Z,101224.78
2023-03-29T02:48:23.516Z,101245.56
2023-03-29T02:51:03.443Z,101226.19
2023-03-29T02:56:44.838Z,101232.25
2023-03-29T02:59:19.641Z,101228.81
2023-03-29T03:01:58.777Z,101217.19
2023-03-29T03:04:34.054Z,101210.84
2023-03-29T03:07:06.631Z,101205.09
2023-03-29T03:09:40.052Z,101211.16
2023-03-29T03:12:13.018Z,101215.19
2023-03-29T03:14:45.774Z,101219.84
2023-03-29T03:17:24.707Z,101217.66
2023-03-29T03:19:57.376Z,101203.38
2023-03-29T03:22:30.316Z,101193.16
2023-03-29T03:25:03.022Z,101208.97
2023-03-29T03:27:37.017Z,101192.53
2023-03-29T03:30:16.653Z,101195.50
2023-03-29T03:35:22.867Z,101197.97
2023-03-29T03:37:55.460Z,101181.06
2023-03-29T03:40:37.049Z,101179.94
2023-03-29T03:43:12.739Z,101177.28
2023-03-29T03:45:57.873Z,101187.22
2023-03-29T03:48:42.893Z,101183.19
2023-03-29T03:51:30.412Z,101191.59
2023-03-29T03:54:08.940Z,101197.66
2023-03-29T03:56:41.602Z,101175.75
2023-03-29T04:02:01.726Z,101198.75
2023-03-29T04:04:34.775Z,101176.19
2023-03-29T04:07:18.652Z,101166.31
2023-03-29T04:10:00.412Z,101186.97
2023-03-29T04:12:33.150Z,101200.28
2023-03-29T04:15:07.482Z,101195.63
2023-03-29T04:17:46.640Z,101191.59
2023-03-29T04:20:20.008Z,101185.72
2023-03-29T04:22:53.691Z,101191.59
2023-03-29T04:25:26.674Z,101179.94
2023-03-29T04:27:59.427Z,101162.06
2023-03-29T04:30:32.417Z,101171.41
2023-03-29T04:33:08.328Z,101154.31
2023-03-29T04:35:47.134Z,101163.66
2023-03-29T04:38:26.792Z,101164.91
2023-03-29T04:41:01.138Z,101159.00
2023-03-29T04:43:34.711Z,101176.72
2023-03-29T04:46:08.075Z,101173.91
2023-03-29T04:48:41.016Z,101183.84
2023-03-29T04:51:24.604Z,101165.19
2023-03-29T04:54:00.368Z,101156.66
2023-03-29T04:56:42.283Z,101180.72
2023-03-29T04:59:14.945Z,101145.06
2023-03-29T05:01:47.949Z,101161.50
2023-03-29T05:04:20.858Z,101149.38
2023-03-29T05:06:53.959Z,101155.00
2023-03-29T05:12:13.444Z,101159.34
2023-03-29T05:14:46.121Z,101142.56
2023-03-29T05:17:20.272Z,101147.56
2023-03-29T05:19:54.390Z,101138.25
2023-03-29T05:22:42.482Z,101150.72
2023-03-29T05:25:17.022Z,101136.53
2023-03-29T05:27:49.819Z,101133.94
2023-03-29T05:30:23.861Z,101158.66
2023-03-29T05:32:56.454Z,101149.19
2023-03-29T05:35:29.349Z,101174.94
2023-03-29T05:38:04.393Z,101162.53
2023-03-29T05:40:37.418Z,101172.16
2023-03-29T05:43:10.107Z,101181.63
2023-03-29T05:45:58.255Z,101169.25
2023-03-29T05:48:31.345Z,101174.06
2023-03-29T05:51:05.088Z,101184.28
2023-03-29T05:53:38.311Z,101169.41
2023-03-29T05:56:20.052Z,101156.88
2023-03-29T05:58:59.953Z,101171.59
2023-03-29T06:01:32.611Z,101181.19
2023-03-29T06:04:06.641Z,101170.34
2023-03-29T06:06:42.497Z,101167.56
2023-03-29T06:09:15.706Z,101172.81
2023-03-29T06:11:48.888Z,101167.84
2023-03-29T06:14:23.826Z,101174.72
2023-03-29T06:16:56.761Z,101166.47
2023-03-29T06:19:44.463Z,101175.47
2023-03-29T06:22:23.009Z,101162.91
2023-03-29T06:24:55.684Z,101168.16
2023-03-29T06:30:44.611Z,101184.28
2023-03-29T06:33:17.475Z,101168.94
2023-03-29T06:35:52.958Z,101188.31
2023-03-29T06:38:32.053Z,101168.16
2023-03-29T06:41:11.289Z,101168.59
2023-03-29T06:43:49.296Z,101154.50
2023-03-29T06:46:22.351Z,101182.38
2023-03-29T06:48:57.491Z,101171.56
2023-03-29T06:51:30.424Z,101187.81
2023-03-29T06:54:04.173Z,101183.03
2023-03-29T06:56:39.777Z,101165.78
2023-03-29T07:02:12.622Z,101166.56
2023-03-29T07:04:46.279Z,101185.94
2023-03-29T07:07:32.626Z,101183.00
2023-03-29T07:10:07.391Z,101177.56
2023-03-29T07:12:40.799Z,101175.28
2023-03-29T07:15:13.701Z,101196.94
2023-03-29T07:17:46.286Z,101194.78
2023-03-29T07:20:19.713Z,101185.03
2023-03-29T07:22:53.758Z,101197.25
2023-03-29T07:25:27.531Z,101182.22
2023-03-29T07:28:00.375Z,101202.84
2023-03-29T07:30:33.836Z,101194.19
2023-03-29T07:33:06.627Z,101182.38
2023-03-29T07:35:43.939Z,101194.50
2023-03-29T07:38:22.609Z,101199.63
2023-03-29T07:41:08.220Z,101212.78
2023-03-29T07:43:41.815Z,101218.97
2023-03-29T07:46:14.445Z,101224.09
2023-03-29T07:48:47.543Z,101226.88
2023-03-29T07:51:20.293Z,101231.72
2023-03-29T07:53:53.299Z,101224.56
2023-03-29T07:56:26.545Z,101232.00
2023-03-29T07:58:59.184Z,101232.63
2023-03-29T08:01:32.037Z,101239.13
2023-03-29T08:04:04.975Z,101239.00
2023-03-29T08:06:38.963Z,101236.34
2023-03-29T08:09:12.516Z,101239.75
2023-03-29T08:11:47.494Z,101212.59
2023-03-29T08:14:26.023Z,101233.53
2023-03-29T08:17:05.191Z,101243.47
2023-03-29T08:19:38.085Z,101239.91
2023-03-29T08:22:10.854Z,101225.44
2023-03-29T08:24:43.710Z,101236.63
2023-03-29T08:27:16.388Z,101234.94
2023-03-29T08:29:49.375Z,101234.94
2023-03-29T08:32:22.058Z,101233.19
2023-03-29T08:34:55.113Z,101225.88
2023-03-29T08:37:28.160Z,101221.84
2023-03-29T08:40:01.045Z,101222.63
2023-03-29T08:43:11.119Z,101220.75
2023-03-29T08:46:20.925Z,101215.16
2023-03-29T08:49:02.695Z,101220.75
2023-03-29T08:51:47.276Z,101223.06
2023-03-29T08:54:27.270Z,101227.91
2023-03-29T08:57:15.551Z,101216.72
2023-03-29T08:59:53.633Z,101221.34
2023-03-29T09:02:32.791Z,101215.75
2023-03-29T09:05:29.590Z,101216.06
2023-03-29T09:08:02.597Z,101206.47
2023-03-29T09:10:46.071Z,101221.97
2023-03-29T09:13:30.653Z,101208.28
2023-03-29T09:16:37.659Z,101208.53
2023-03-29T09:20:04.530Z,101209.63
2023-03-29T09:23:01.889Z,101209.13
2023-03-29T09:26:12.607Z,101211.94
2023-03-29T09:29:28.047Z,101205.09
2023-03-29T09:32:05.799Z,101196.59
2023-03-29T09:35:08.675Z,101194.50
2023-03-29T09:37:41.896Z,101192.94
2023-03-29T09:40:24.686Z,101203.69
2023-03-29T09:43:00.978Z,101205.72
2023-03-29T09:45:39.223Z,101216.91
2023-03-29T09:48:16.956Z,101215.34
2023-03-29T09:50:52.253Z,101208.97
2023-03-29T09:53:25.457Z,101211.31
2023-03-29T09:56:02.033Z,101201.34
2023-03-29T09:58:44.154Z,101204.75
2023-03-29T10:01:38.620Z,101199.16
2023-03-29T10:04:13.446Z,101203.00
2023-03-29T10:06:52.827Z,101202.91
2023-03-29T10:09:30.182Z,101220.56
2023-03-29T10:12:07.014Z,101209.38
2023-03-29T10:14:49.834Z,101205.34
2023-03-29T10:17:28.145Z,101211.25
2023-03-29T10:20:08.173Z,101210.75
2023-03-29T10:22:49.846Z,101204.69
2023-03-29T10:25:31.347Z,101197.56
2023-03-29T10:28:16.326Z,101203.25
2023-03-29T10:30:56.344Z,101194.84
2023-03-29T10:33:33.236Z,101181.66
2023-03-29T10:36:07.878Z,101179.13
2023-03-29T10:38:40.546Z,101165.72
2023-03-29T10:41:21.752Z,101179.09
2023-03-29T10:43:55.120Z,101178.41
2023-03-29T10:46:43.302Z,101170.91
2023-03-29T10:49:22.891Z,101177.44
2023-03-29T10:51:55.608Z,101154.66
2023-03-29T10:54:37.392Z,101157.22
2023-03-29T10:57:25.206Z,101158.44
2023-03-29T11:00:16.775Z,101155.78
2023-03-29T11:03:16.560Z,101139.25
2023-03-29T11:06:23.256Z,101146.03
2023-03-29T11:09:05.151Z,101139.06
2023-03-29T11:11:44.960Z,101135.03
2023-03-29T11:14:44.020Z,101133.19
2023-03-29T11:18:16.786Z,101138.34
2023-03-29T11:21:10.709Z,101130.31
2023-03-29T11:24:25.640Z,101127.16
2023-03-29T11:27:25.907Z,101123.88
2023-03-29T11:30:54.163Z,101128.88
2023-03-29T11:33:51.208Z,101128.69
2023-03-29T11:36:59.655Z,101117.22
2023-03-29T11:40:16.459Z,101152.25
2023-03-29T11:42:55.362Z,101144.72
2023-03-29T11:45:41.421Z,101128.69
2023-03-29T11:48:25.403Z,101137.38
2023-03-29T11:51:18.825Z,101115.19
2023-03-29T11:54:03.452Z,101120.22
2023-03-29T11:56:52.555Z,101119.41
2023-03-29T11:59:56.065Z,101118.47
2023-03-29T12:02:35.004Z,101106.50
2023-03-29T12:05:20.100Z,101105.81
2023-03-29T12:08:27.012Z,101103.78
2023-03-29T12:11:22.890Z,101107.16
2023-03-29T12:14:22.044Z,101113.53
2023-03-29T12:17:18.024Z,101123.84
2023-03-29T12:23:22.713Z,101096.13
2023-03-29T12:26:33.812Z,101105.13
2023-03-29T12:30:27.754Z,101107.22
2023-03-29T12:33:27.754Z,101105.13
2023-03-29T12:36:09.714Z,101106.09
2023-03-29T12:38:45.068Z,101101.94
2023-03-29T12:41:24.636Z,101107.84
2023-03-29T12:44:04.337Z,101096.81
2023-03-29T12:46:37.242Z,101074.41
2023-03-29T12:49:38.319Z,101082.13
2023-03-29T12:52:32.835Z,101069.56
2023-03-29T12:55:47.210Z,101058.94
2023-03-29T12:58:41.454Z,101050.25
2023-03-29T13:01:37.901Z,101041.38
2023-03-29T13:04:20.972Z,101042.31
2023-03-29T13:07:03.386Z,101029.75
2023-03-29T13:10:29.649Z,101028.81
2023-03-29T13:13:21.611Z,101039.81
2023-03-29T13:15:54.590Z,101040.03
2023-03-29T13:19:15.100Z,101041.84
2023-03-29T13:22:12.767Z,101029.56
2023-03-29T13:24:54.426Z,101027.53
2023-03-29T13:27:50.925Z,101020.13
2023-03-29T13:30:51.191Z,101013.34
2023-03-29T13:33:57.713Z,101012.56
2023-03-29T13:37:14.728Z,101012.47
2023-03-29T13:39:54.138Z,100986.88
2023-03-29T13:42:36.545Z,100996.16
2023-03-29T13:45:29.873Z,101001.56
2023-03-29T13:48:23.016Z,100993.75
2023-03-29T13:51:08.499Z,100986.88
2023-03-29T13:53:52.854Z,100983.81
2023-03-29T13:56:31.155Z,100984.91
2023-03-29T13:59:20.783Z,100976.25
2023-03-29T14:02:00.287Z,100973.88
2023-03-29T14:04:46.981Z,100979.75
2023-03-29T14:07:26.416Z,100976.84
2023-03-29T14:10:01.309Z,100977.34
2023-03-29T14:12:42.730Z,100969.84
2023-03-29T14:18:52.472Z,100969.63
2023-03-29T14:21:25.741Z,100967.41
2023-03-29T14:24:21.629Z,100955.16
2023-03-29T14:26:57.478Z,100958.13
2023-03-29T14:29:36.977Z,100944.25
2023-03-29T14:32:31.100Z,100942.31
2023-03-29T14:35:15.448Z,100933.06
2023-03-29T14:37:49.454Z,100944.19
2023-03-29T14:40:24.422Z,100939.03
2023-03-29T14:43:00.658Z,100925.69
2023-03-29T14:45:33.587Z,100933.34
2023-03-29T14:48:09.127Z,100917.97
2023-03-29T14:50:45.288Z,100926.66
2023-03-29T14:53:24.250Z,100921.06
2023-03-29T14:55:57.528Z,100906.78
2023-03-29T14:58:35.925Z,100897.88
2023-03-29T15:01:20.116Z,100895.41
2023-03-29T15:04:03.282Z,100890.72
2023-03-29T15:06:44.885Z,100893.06
2023-03-29T15:09:27.918Z,100876.16
2023-03-29T15:12:07.610Z,100876.72
2023-03-29T15:14:40.466Z,100876.72
2023-03-29T15:17:43.186Z,100877.34
2023-03-29T15:20:33.035Z,100873.94
2023-03-29T15:23:14.380Z,100867.41
2023-03-29T15:26:19.947Z,100863.34
2023-03-29T15:29:03.041Z,100863.72
2023-03-29T15:31:39.817Z,100851.94
2023-03-29T15:34:25.286Z,100847.88
2023-03-29T15:37:00.285Z,100851.19
2023-03-29T15:39:33.806Z,100847.34
2023-03-29T15:42:07.112Z,100852.13
2023-03-29T15:44:39.868Z,100845.22
2023-03-29T15:47:13.457Z,100833.16
2023-03-29T15:49:49.227Z,100842.41
2023-03-29T15:52:22.468Z,100834.50
2023-03-29T15:54:55.190Z,100826.88
2023-03-29T15:57:28.557Z,100817.91
2023-03-29T16:00:02.933Z,100816.66
2023-03-29T16:02:35.956Z,100806.44
2023-03-29T16:05:11.209Z,100807.19
2023-03-29T16:07:43.836Z,100800.84
2023-03-29T16:10:16.370Z,100796.47
2023-03-29T16:12:50.354Z,100796.22
2023-03-29T16:15:24.583Z,100801.34
2023-03-29T16:17:57.199Z,100786.38
2023-03-29T16:20:31.206Z,100784.22
2023-03-29T16:23:11.347Z,100780.97
2023-03-29T16:25:44.046Z,100771.50
2023-03-29T16:28:17.115Z,100774.09
2023-03-29T16:30:49.782Z,100767.16
2023-03-29T16:33:22.580Z,100750.50
2023-03-29T16:36:10.822Z,100744.13
2023-03-29T16:38:45.169Z,100758.97
2023-03-29T16:41:37.260Z,100735.03
2023-03-29T16:44:34.984Z,100751.03
2023-03-29T16:47:12.117Z,100749.03
2023-03-29T16:50:03.576Z,100722.47
2023-03-29T16:52:39.965Z,100727.78
2023-03-29T16:55:15.210Z,100717.25
2023-03-29T17:00:48.549Z,100720.63
2023-03-29T17:03:21.645Z,100735.75
2023-03-29T17:05:54.603Z,100724.69
2023-03-29T17:11:24.736Z,100719.38
2023-03-29T17:13:57.442Z,100720.63
2023-03-29T17:16:30.623Z,100716.56
2023-03-29T17:19:06.138Z,100704.25
2023-03-29T17:21:39.908Z,100715.72
2023-03-29T17:27:07.206Z,100694.00
2023-03-29T17:29:40.127Z,100711.47
2023-03-29T17:32:36.595Z,100709.78
2023-03-29T17:35:10.454Z,100685.91
2023-03-29T17:37:43.015Z,100689.97
2023-03-29T17:40:31.266Z,100686.19
2023-03-29T17:43:04.226Z,100663.09
2023-03-29T17:45:36.803Z,100678.50
2023-03-29T17:48:09.546Z,100690.25
2023-03-29T17:50:42.258Z,100658.50
2023-03-29T17:53:14.828Z,100668.03
2023-03-29T17:55:47.475Z,100679.50
2023-03-29T17:58:20.210Z,100670.53
2023-03-29T18:00:53.221Z,100657.91
2023-03-29T18:03:26.217Z,100669.78
2023-03-29T18:05:58.837Z,100648.28
2023-03-29T18:08:55.160Z,100664.38
2023-03-29T18:11:26.020Z,100659.06
2023-03-29T18:14:00.832Z,100676.13
2023-03-29T18:16:33.687Z,100659.47
2023-03-29T18:19:06.310Z,100665.06
2023-03-29T18:21:38.969Z,100675.38
2023-03-29T18:24:11.698Z,100656.31
2023-03-29T18:27:02.621Z,100661.28
2023-03-29T18:29:35.772Z,100644.34
2023-03-29T18:32:08.750Z,100640.28
2023-03-29T18:34:42.432Z,100645.13
2023-03-29T18:37:17.403Z,100648.69
2023-03-29T18:39:50.175Z,100638.38
2023-03-29T18:42:23.427Z,100638.38
2023-03-29T18:44:56.007Z,100637.22
2023-03-29T18:47:31.663Z,100641.56
2023-03-29T18:50:16.013Z,100652.31
2023-03-29T18:52:48.970Z,100631.84
2023-03-29T18:55:22.570Z,100643.03
2023-03-29T18:58:11.711Z,100628.75
2023-03-29T19:00:47.206Z,100630.66
2023-03-29T19:03:19.792Z,100636.44
2023-03-29T19:06:03.419Z,100642.81
2023-03-29T19:08:38.784Z,100626.13
2023-03-29T19:11:16.829Z,100618.16
2023-03-29T19:13:50.681Z,100621.72
2023-03-29T19:16:23.364Z,100639.53
2023-03-29T19:18:56.198Z,100629.91
2023-03-29T19:21:31.492Z,100637.44
2023-03-29T19:24:05.233Z,100635.13
2023-03-29T19:26:39.558Z,100645.31
2023-03-29T19:29:12.788Z,100629.81
2023-03-29T19:31:45.950Z,100623.16
2023-03-29T19:34:22.923Z,100626.25
2023-03-29T19:36:56.114Z,100614.28
2023-03-29T19:39:29.883Z,100619.84
2023-03-29T19:42:02.521Z,100608.09
2023-03-29T19:44:40.477Z,100593.56
2023-03-29T19:47:13.310Z,100600.47
2023-03-29T19:49:46.646Z,100569.22
2023-03-29T19:52:20.670Z,100579.78
2023-03-29T19:54:55.777Z,100589.78
2023-03-29T19:57:28.463Z,100583.91
2023-03-29T20:00:11.881Z,100576.78
2023-03-29T20:02:44.768Z,100565.50
2023-03-29T20:05:18.016Z,100568.41
2023-03-29T20:07:52.557Z,100563.28
2023-03-29T20:10:25.396Z,100562.53
2023-03-29T20:12:58.282Z,100560.50
2023-03-29T20:15:31.480Z,100543.34
2023-03-29T20:18:04.616Z,100555.38
2023-03-29T20:20:37.256Z,100541.63
2023-03-29T20:23:10.743Z,100532.16
2023-03-29T20:25:43.467Z,100525.63
2023-03-29T20:28:16.185Z,100521.00
2023-03-29T20:30:51.071Z,100515.34
2023-03-29T20:33:23.965Z,100517.16
2023-03-29T20:35:56.571Z,100513.09
2023-03-29T20:38:29.224Z,100507.25
2023-03-29T20:41:04.442Z,100507.00
2023-03-29T20:43:37.845Z,100504.22
2023-03-29T20:46:22.821Z,100490.00
2023-03-29T20:48:58.573Z,100486.91
2023-03-29T20:51:32.056Z,100483.59
2023-03-29T20:54:07.689Z,100485.16
2023-03-29T20:56:42.805Z,100475.72
2023-03-29T20:59:15.663Z,100466.78
2023-03-29T21:01:50.180Z,100465.50
2023-03-29T21:04:23.254Z,100470.91
2023-03-29T21:06:56.959Z,100469.56
2023-03-29T21:09:30.971Z,100472.94
2023-03-29T21:12:03.580Z,100478.25
2023-03-29T21:14:36.401Z,100472.66
2023-03-29T21:19:55.806Z,100475.44
2023-03-29T21:22:28.933Z,100462.94
2023-03-29T21:25:01.729Z,100456.09
2023-03-29T21:27:34.791Z,100468.03
2023-03-29T21:30:08.944Z,100470.53
2023-03-29T21:32:41.498Z,100452.78
2023-03-29T21:38:07.182Z,100449.38
2023-03-29T21:40:49.991Z,100448.13
2023-03-29T21:43:28.452Z,100430.72
2023-03-29T21:46:01.395Z,100435.47
2023-03-29T21:48:36.009Z,100427.56
2023-03-29T21:51:09.414Z,100433.44
2023-03-29T21:53:42.230Z,100440.31
2023-03-29T21:56:15.441Z,100442.31
2023-03-29T21:58:48.251Z,100419.91
2023-03-29T22:01:27.345Z,100392.59
2023-03-29T22:04:00.298Z,100416.06
2023-03-29T22:06:45.428Z,100427.09
2023-03-29T22:09:20.867Z,100410.47
2023-03-29T22:12:05.719Z,100385.44
2023-03-29T22:14:50.863Z,100395.38
2023-03-29T22:17:36.358Z,100413.56
2023-03-29T22:20:15.468Z,100390.50
2023-03-29T22:22:58.183Z,100410.19
2023-03-29T22:25:31.146Z,100413.81
2023-03-29T22:28:04.233Z,100402.78
2023-03-29T22:30:36.945Z,100405.94
2023-03-29T22:33:09.559Z,100408.94
2023-03-29T22:38:31.886Z,100399.13
2023-03-29T22:41:07.055Z,100384.91
2023-03-29T22:43:40.535Z,100396.50
2023-03-29T22:46:14.294Z,100396.50
2023-03-29T22:48:47.497Z,100393.72
2023-03-29T22:51:20.373Z,100394.69
2023-03-29T22:53:53.479Z,100394.69
2023-03-29T22:56:27.551Z,100372.19
2023-03-29T22:59:02.520Z,100385.44
2023-03-29T23:04:21.667Z,100359.91
2023-03-29T23:06:54.385Z,100365.84
2023-03-29T23:09:27.099Z,100371.75
2023-03-29T23:12:01.196Z,100387.00
2023-03-29T23:14:34.370Z,100371.44
2023-03-29T23:17:09.128Z,100375.81
2023-03-29T23:19:41.897Z,100370.25
2023-03-29T23:22:30.871Z,100363.88
2023-03-29T23:25:05.376Z,100361.56
2023-03-29T23:27:40.309Z,100375.28
2023-03-29T23:30:13.005Z,100340.06
2023-03-29T23:32:46.912Z,100356.97
2023-03-29T23:35:20.785Z,100337.28
2023-03-29T23:38:16.564Z,100368.16
2023-03-29T23:41:10.947Z,100340.06
2023-03-29T23:43:44.841Z,100350.28
2023-03-29T23:46:19.025Z,100347.75
2023-03-29T23:49:06.985Z,100337.28
2023-03-29T23:51:39.713Z,100339.38
2023-03-29T23:54:12.821Z,100339.31
2023-03-29T23:56:45.472Z,100347.19
2023-03-29T23:59:18.256Z,100357.66
